Time;durP1;ratioP1;P1;durP2;ratioP2;P2;SDS_P1;SDS_P2;PMS_P1;PMS_P2;Temp;Humidity;BMP_temperature;BMP_pressure;BME280_temperature;BME280_humidity;BME280_pressure;Samples;Min_cycle;Max_cycle;Signal;HPM_P1;HPM_P2
2022/06/11 00:01:43;;;;;;;0.40;0.20;;;;;;;15.63;99.77;100853.03;5000119;28;20485;-50
2022/06/11 00:04:17;;;;;;;0.40;0.20;;;;;;;15.65;99.47;100847.63;4995974;28;20552;-50
2022/06/11 00:06:47;;;;;;;0.40;0.20;;;;;;;15.65;98.86;100847.63;4997947;28;20954;-50
2022/06/11 00:09:15;;;;;;;6.73;3.60;;;;;;;15.51;99.41;100848.13;5005145;28;20496;-51
2022/06/11 00:11:42;;;;;;;0.40;0.30;;;;;;;15.56;99.20;100843.44;5009300;28;20473;-51
2022/06/11 00:14:10;;;;;;;0.40;0.20;;;;;;;15.46;99.41;100843.88;4995167;28;20857;-50
2022/06/11 00:16:38;;;;;;;0.60;0.60;;;;;;;15.58;98.72;100846.94;5008298;28;20840;-51
2022/06/11 00:19:06;;;;;;;0.40;0.20;;;;;;;15.41;100.00;100844.94;4995142;28;20549;-50
2022/06/11 00:21:36;;;;;;;0.40;0.20;;;;;;;15.31;100.00;100840.88;5009927;28;20519;-50
2022/06/11 00:24:03;;;;;;;0.50;0.47;;;;;;;15.32;100.00;100841.75;5013968;28;21015;-51
2022/06/11 00:26:30;;;;;;;0.40;0.30;;;;;;;15.46;99.25;100838.53;4995959;28;20524;-51
2022/06/11 00:28:57;;;;;;;0.40;0.20;;;;;;;15.28;99.96;100838.31;5006609;28;20535;-50
2022/06/11 00:31:24;;;;;;;0.40;0.30;;;;;;;15.44;99.41;100837.72;4995668;28;20469;-51
2022/06/11 00:33:51;;;;;;;0.40;0.20;;;;;;;15.40;99.25;100835.16;5004058;28;20536;-50
2022/06/11 00:36:18;;;;;;;0.40;0.30;;;;;;;15.52;98.46;100844.53;4994860;28;20453;-51
2022/06/11 00:38:47;;;;;;;0.40;0.20;;;;;;;15.19;98.68;100841.34;5007627;28;20484;-51
2022/06/11 00:41:18;;;;;;;3.90;1.43;;;;;;;15.20;99.59;100842.22;5008875;28;20531;-50
2022/06/11 00:43:45;;;;;;;0.40;0.20;;;;;;;15.03;100.00;100842.88;5007154;28;20444;-51
2022/06/11 00:46:35;;;;;;;0.40;0.40;;;;;;;15.40;98.95;100831.59;4994715;28;20461;-51
2022/06/11 00:49:16;;;;;;;0.40;0.30;;;;;;;15.08;100.00;100838.22;5007217;28;20500;-51
2022/06/11 00:51:44;;;;;;;0.40;0.20;;;;;;;15.43;99.55;100827.94;4994786;28;20998;-50
2022/06/11 00:54:15;;;;;;;0.40;0.20;;;;;;;15.32;99.88;100823.88;4995475;28;20870;-51
2022/06/11 00:56:46;;;;;;;0.40;0.30;;;;;;;15.43;99.81;100826.13;4993143;28;20457;-51
2022/06/11 00:59:17;;;;;;;0.40;0.30;;;;;;;15.36;99.60;100822.84;5001314;28;20507;-50
2022/06/11 01:01:44;;;;;;;0.40;0.30;;;;;;;15.08;100.00;100823.03;4999266;28;20465;-50
2022/06/11 01:04:33;;;;;;;0.83;0.83;;;;;;;15.36;100.00;100821.97;4997216;28;20457;-50
2022/06/11 01:07:28;;;;;;;0.40;0.20;;;;;;;15.05;100.00;100816.91;4998541;28;20506;-51
2022/06/11 01:10:21;;;;;;;0.40;0.20;;;;;;;15.20;100.00;100820.78;5000908;28;20453;-50
2022/06/11 01:13:06;;;;;;;0.40;0.20;;;;;;;15.29;100.00;100817.75;5001771;28;20492;-51
2022/06/11 01:16:07;;;;;;;0.40;0.20;;;;;;;15.27;100.00;100825.00;5013435;28;20996;-50
2022/06/11 01:18:45;;;;;;;0.70;0.70;;;;;;;14.28;100.00;100818.84;4993988;28;20541;-50
2022/06/11 01:21:33;;;;;;;1.07;0.97;;;;;;;14.87;100.00;100839.03;5008073;28;20549;-51
2022/06/11 01:24:21;;;;;;;0.50;0.47;;;;;;;15.08;100.00;100831.06;5002362;28;20861;-50
2022/06/11 01:26:56;;;;;;;0.40;0.20;;;;;;;15.30;100.00;100830.22;4999739;28;20947;-51
2022/06/11 01:29:57;;;;;;;1.50;0.50;;;;;;;15.39;100.00;100836.09;4993616;28;20464;-51
2022/06/11 01:32:45;;;;;;;0.40;0.20;;;;;;;15.23;100.00;100832.28;4989927;28;21046;-51
2022/06/11 01:35:23;;;;;;;0.40;0.30;;;;;;;15.56;100.00;100822.03;4993720;28;20531;-50
2022/06/11 01:38:06;;;;;;;0.40;0.20;;;;;;;15.29;100.00;100824.00;4994571;28;20441;-50
2022/06/11 01:40:41;;;;;;;0.40;0.20;;;;;;;15.68;100.00;100824.22;5006494;28;20564;-51
2022/06/11 01:43:17;;;;;;;0.40;0.20;;;;;;;15.63;100.00;100820.00;4993671;28;20511;-51
2022/06/11 01:45:45;;;;;;;0.40;0.30;;;;;;;15.07;100.00;100818.59;5004868;28;20476;-51
2022/06/11 01:48:19;;;;;;;0.40;0.20;;;;;;;15.30;100.00;100823.06;4993769;28;20480;-51
2022/06/11 01:51:07;;;;;;;0.40;0.40;;;;;;;15.60;100.00;100820.09;5006213;28;20547;-51
2022/06/11 01:53:56;;;;;;;0.40;0.20;;;;;;;15.68;100.00;100818.00;4994103;28;20445;-50
2022/06/11 01:56:37;;;;;;;0.40;0.20;;;;;;;15.74;100.00;100823.09;4999732;28;20571;-51
2022/06/11 01:59:38;;;;;;;1.03;1.03;;;;;;;15.82;100.00;100822.78;5006396;28;20492;-51
2022/06/11 02:02:16;;;;;;;0.40;0.20;;;;;;;15.85;100.00;100815.47;4993961;28;20481;-50
2022/06/11 02:04:46;;;;;;;0.53;0.53;;;;;;;15.57;100.00;100815.72;4999506;28;20511;-51
2022/06/11 02:07:22;;;;;;;0.50;0.50;;;;;;;15.86;100.00;100819.91;5005907;28;20458;-51
2022/06/11 02:10:15;;;;;;;0.40;0.40;;;;;;;16.07;100.00;100809.22;4996167;28;20491;-51
2022/06/11 02:12:48;;;;;;;0.40;0.20;;;;;;;16.02;100.00;100819.25;5001078;28;20492;-51
2022/06/11 02:16:08;;;;;;;0.57;0.57;;;;;;;15.87;100.00;100827.00;4998115;28;20895;-51
2022/06/11 02:18:37;;;;;;;0.40;0.20;;;;;;;15.88;100.00;100817.16;4944234;29;20479;-51
2022/06/11 02:21:11;;;;;;;0.40;0.40;;;;;;;15.94;100.00;100822.28;5001282;28;20472;-50
2022/06/11 02:23:47;;;;;;;0.40;0.20;;;;;;;16.08;100.00;100827.94;5004253;28;20495;-50
2022/06/11 02:26:19;;;;;;;0.40;0.20;;;;;;;16.13;100.00;100825.03;5000094;28;20457;-50
2022/06/11 02:28:49;;;;;;;0.40;0.30;;;;;;;16.17;100.00;100822.19;4992756;28;21005;-51
2022/06/11 02:31:23;;;;;;;0.40;0.20;;;;;;;16.21;100.00;100820.22;5005216;28;20950;-51
2022/06/11 02:33:50;;;;;;;0.40;0.20;;;;;;;16.18;100.00;100823.06;4993407;28;20454;-51
2022/06/11 02:36:27;;;;;;;0.40;0.20;;;;;;;16.26;100.00;100821.75;4997625;28;20485;-50
2022/06/11 02:38:59;;;;;;;0.40;0.40;;;;;;;16.30;100.00;100827.84;5005656;28;20503;-51
2022/06/11 02:41:31;;;;;;;0.40;0.30;;;;;;;16.39;100.00;100827.47;5008787;28;20481;-51
2022/06/11 02:43:58;;;;;;;0.40;0.20;;;;;;;16.35;100.00;100836.59;4996453;28;20480;-51
2022/06/11 02:46:43;;;;;;;3.03;1.90;;;;;;;16.36;100.00;100826.75;4993006;28;20449;-50
2022/06/11 02:49:28;;;;;;;0.40;0.20;;;;;;;16.47;100.00;100829.81;4996262;28;20503;-50
2022/06/11 02:51:59;;;;;;;0.50;0.40;;;;;;;16.42;100.00;100831.81;4993309;28;20477;-50
2022/06/11 02:54:26;;;;;;;0.40;0.40;;;;;;;16.44;100.00;100835.31;5004286;28;20453;-50
2022/06/11 02:56:55;;;;;;;0.40;0.20;;;;;;;16.49;100.00;100834.19;4992617;28;20496;-50
2022/06/11 02:59:23;;;;;;;0.40;0.20;;;;;;;16.32;100.00;100833.19;5001219;28;20945;-51
2022/06/11 03:01:54;;;;;;;0.40;0.20;;;;;;;16.43;100.00;100839.81;4996273;28;20542;-51
2022/06/11 03:04:23;;;;;;;0.40;0.30;;;;;;;16.41;100.00;100838.13;5000443;28;20472;-51
2022/06/11 03:06:51;;;;;;;0.60;0.60;;;;;;;15.97;100.00;100836.41;4995867;28;20511;-51
2022/06/11 03:09:21;;;;;;;1.23;0.97;;;;;;;16.30;100.00;100843.97;5001665;28;20793;-50
2022/06/11 03:11:48;;;;;;;0.40;0.20;;;;;;;16.22;100.00;100832.72;5007643;28;20587;-51
2022/06/11 03:14:15;;;;;;;0.40;0.20;;;;;;;16.09;100.00;100837.72;4992242;28;20492;-50
2022/06/11 03:16:43;;;;;;;0.50;0.40;;;;;;;16.22;100.00;100836.25;5006639;28;20876;-51
2022/06/11 03:19:11;;;;;;;0.40;0.20;;;;;;;16.45;100.00;100834.41;5000772;28;20943;-50
2022/06/11 03:21:38;;;;;;;0.40;0.40;;;;;;;16.04;100.00;100830.81;5002287;28;20468;-50
2022/06/11 03:24:06;;;;;;;0.40;0.20;;;;;;;16.08;100.00;100838.66;5006585;28;20449;-51
2022/06/11 03:26:33;;;;;;;0.40;0.20;;;;;;;16.28;100.00;100829.75;5015493;28;20995;-50
2022/06/11 03:29:00;;;;;;;0.40;0.20;;;;;;;16.43;100.00;100825.50;5015395;28;20913;-51
2022/06/11 03:31:27;;;;;;;0.50;0.30;;;;;;;16.51;100.00;100842.16;5015412;28;20473;-51
2022/06/11 03:33:53;;;;;;;0.40;0.20;;;;;;;16.41;100.00;100838.13;5015034;28;20452;-51
2022/06/11 03:36:20;;;;;;;0.40;0.20;;;;;;;16.50;100.00;100824.31;5001715;28;20489;-50
2022/06/11 03:38:47;;;;;;;1.33;1.23;;;;;;;16.05;100.00;100828.06;4995826;28;20866;-51
2022/06/11 03:41:15;;;;;;;0.40;0.20;;;;;;;15.95;100.00;100821.34;5014593;28;20912;-50
2022/06/11 03:43:43;;;;;;;0.40;0.37;;;;;;;16.18;100.00;100817.69;5002498;28;20508;-51
2022/06/11 03:46:10;;;;;;;0.40;0.20;;;;;;;16.04;100.00;100812.91;4996108;28;20504;-51
2022/06/11 03:48:38;;;;;;;0.40;0.30;;;;;;;15.96;100.00;100817.72;5002202;28;20450;-51
2022/06/11 03:51:06;;;;;;;1.67;0.50;;;;;;;16.22;100.00;100832.72;5001822;28;20542;-50
2022/06/11 03:53:34;;;;;;;0.40;0.30;;;;;;;15.90;100.00;100842.13;5001758;28;20454;-51
2022/06/11 03:56:01;;;;;;;0.40;0.30;;;;;;;16.09;100.00;100844.91;5005046;28;21056;-50
2022/06/11 03:58:27;;;;;;;0.60;0.50;;;;;;;15.95;100.00;100837.44;4997247;28;20524;-50
2022/06/11 04:03:42;;;;;;;0.40;0.20;;;;;;;16.08;100.00;100848.53;5014345;28;20487;-50
2022/06/11 04:06:09;;;;;;;0.40;0.30;;;;;;;16.00;100.00;100840.78;5004572;28;20500;-51
2022/06/11 04:08:36;;;;;;;0.40;0.20;;;;;;;16.13;100.00;100857.22;4998151;28;20456;-51
2022/06/11 04:11:04;;;;;;;0.50;0.40;;;;;;;15.97;100.00;100849.84;5000490;28;20509;-50
2022/06/11 04:13:33;;;;;;;0.40;0.20;;;;;;;16.08;100.00;100860.13;4999005;28;20835;-51
2022/06/11 04:16:02;;;;;;;0.40;0.20;;;;;;;16.07;100.00;100854.81;5026808;28;20550;-51
2022/06/11 04:18:33;;;;;;;0.60;0.60;;;;;;;16.18;100.00;100850.75;5001851;28;20480;-51
2022/06/11 04:21:02;;;;;;;0.40;0.20;;;;;;;16.25;100.00;100849.53;5001674;28;20543;-51
2022/06/11 04:23:30;;;;;;;0.40;0.30;;;;;;;16.29;100.00;100847.59;5007717;28;20504;-51
2022/06/11 04:25:59;;;;;;;0.40;0.40;;;;;;;16.23;100.00;100855.91;4995204;28;20472;-50
2022/06/11 04:28:29;;;;;;;0.40;0.20;;;;;;;16.64;100.00;100853.22;5002714;28;20456;-50
2022/06/11 04:30:57;;;;;;;0.40;0.23;;;;;;;17.66;100.00;100853.81;4999697;28;20473;-50
2022/06/11 04:33:24;;;;;;;0.40;0.20;;;;;;;18.77;96.68;100853.56;5003309;28;20530;-51
2022/06/11 04:35:51;;;;;;;0.40;0.40;;;;;;;19.09;93.33;100853.66;4999072;28;21021;-51
2022/06/11 04:38:18;;;;;;;0.40;0.20;;;;;;;19.55;90.87;100848.41;5003605;28;20479;-51
2022/06/11 04:40:45;;;;;;;0.40;0.20;;;;;;;20.14;88.46;100858.44;4999909;28;20528;-50
2022/06/11 04:43:11;;;;;;;0.40;0.20;;;;;;;20.29;87.12;100853.97;4994670;28;20476;-51
2022/06/11 04:45:39;;;;;;;0.40;0.20;;;;;;;20.75;84.91;100853.91;5005699;28;20504;-51
2022/06/11 04:48:06;;;;;;;0.40;0.30;;;;;;;20.97;84.26;100849.78;5004252;28;20469;-52
2022/06/11 04:50:33;;;;;;;0.50;0.40;;;;;;;21.24;83.01;100857.97;4997109;28;20911;-50
2022/06/11 04:53:00;;;;;;;0.50;0.43;;;;;;;20.94;83.37;100855.34;5004758;28;20821;-52
2022/06/11 04:55:27;;;;;;;0.50;0.30;;;;;;;21.64;81.90;100857.25;5000818;28;20849;-52
2022/06/11 04:57:54;;;;;;;0.40;0.27;;;;;;;21.96;79.93;100858.72;4997740;28;20511;-51
2022/06/11 05:00:24;;;;;;;0.40;0.20;;;;;;;22.07;80.29;100858.03;4995216;28;20458;-52
2022/06/11 05:02:51;;;;;;;0.40;0.20;;;;;;;21.68;81.97;100856.97;4995649;28;20823;-51
2022/06/11 05:05:18;;;;;;;0.40;0.30;;;;;;;21.20;83.13;100853.72;5009789;28;20449;-51
2022/06/11 05:07:45;;;;;;;0.73;0.73;;;;;;;21.17;85.08;100863.88;5010050;28;20503;-52
2022/06/11 05:10:15;;;;;;;0.40;0.27;;;;;;;20.88;85.46;100858.44;5005382;28;20519;-51
2022/06/11 05:12:42;;;;;;;0.40;0.20;;;;;;;20.63;87.46;100859.09;4996398;28;20449;-52
2022/06/11 05:15:09;;;;;;;0.50;0.40;;;;;;;20.11;90.54;100858.63;5011320;28;20456;-52
2022/06/11 05:17:36;;;;;;;1.80;0.57;;;;;;;20.16;89.57;100861.06;5014940;28;20484;-52
2022/06/11 05:20:04;;;;;;;0.43;0.30;;;;;;;19.92;90.33;100860.66;5011738;28;21004;-52
2022/06/11 05:22:30;;;;;;;0.40;0.20;;;;;;;19.78;90.54;100866.88;5005873;28;20538;-51
2022/06/11 05:24:57;;;;;;;0.50;0.30;;;;;;;19.79;90.22;100860.50;4994887;28;20458;-52
2022/06/11 05:27:25;;;;;;;0.40;0.30;;;;;;;19.87;90.72;100862.75;4993858;28;20461;-51
2022/06/11 05:30:02;;;;;;;0.40;0.20;;;;;;;19.67;93.43;100867.47;4999613;28;20938;-52
2022/06/11 05:32:32;;;;;;;0.40;0.20;;;;;;;19.63;92.02;100865.91;5008543;28;20473;-52
2022/06/11 05:35:03;;;;;;;2.40;2.20;;;;;;;19.75;92.82;100870.63;5000165;28;20510;-52
2022/06/11 05:37:29;;;;;;;0.47;0.30;;;;;;;19.47;93.05;100873.09;5004211;28;20489;-52
2022/06/11 05:39:56;;;;;;;0.40;0.20;;;;;;;19.23;92.67;100869.94;5013421;28;20452;-52
2022/06/11 05:42:25;;;;;;;0.40;0.27;;;;;;;19.22;93.29;100870.91;4991257;28;20523;-51
2022/06/11 05:44:51;;;;;;;0.40;0.20;;;;;;;19.20;93.77;100879.06;5008067;28;20456;-52
2022/06/11 05:47:20;;;;;;;0.40;0.20;;;;;;;19.37;92.46;100869.16;5002138;28;20495;-51
2022/06/11 05:49:51;;;;;;;0.40;0.20;;;;;;;19.43;92.60;100871.50;5007642;28;20512;-52
2022/06/11 05:52:24;;;;;;;0.40;0.20;;;;;;;19.45;91.23;100866.91;5009692;28;20531;-52
2022/06/11 05:54:52;;;;;;;0.40;0.30;;;;;;;19.51;92.28;100872.84;5009379;28;20479;-51
2022/06/11 05:57:21;;;;;;;0.40;0.30;;;;;;;19.43;92.67;100875.06;5003394;28;20489;-52
2022/06/11 05:59:53;;;;;;;4.63;1.50;;;;;;;19.50;93.13;100872.94;5011649;28;20740;-51
2022/06/11 06:02:22;;;;;;;0.40;0.20;;;;;;;19.61;92.69;100870.53;4999740;28;20518;-51
2022/06/11 06:04:49;;;;;;;0.40;0.20;;;;;;;19.75;92.25;100873.31;5011032;28;20531;-52
2022/06/11 06:07:16;;;;;;;0.40;0.20;;;;;;;19.78;91.88;100872.25;4993513;28;20445;-52
2022/06/11 06:09:42;;;;;;;0.50;0.37;;;;;;;19.76;91.22;100866.09;5005270;28;20502;-52
2022/06/11 06:12:09;;;;;;;0.40;0.20;;;;;;;19.65;91.63;100874.78;4993771;28;20469;-52
2022/06/11 06:14:36;;;;;;;0.40;0.20;;;;;;;19.81;90.64;100878.34;5003126;28;20456;-52
2022/06/11 06:17:03;;;;;;;0.40;0.20;;;;;;;19.77;91.32;100879.47;5004795;28;21060;-51
2022/06/11 06:19:49;;;;;;;0.40;0.30;;;;;;;19.98;89.88;100876.50;4993995;28;20537;-52
2022/06/11 06:22:16;;;;;;;0.40;0.20;;;;;;;19.95;90.13;100876.66;5012012;28;20976;-52
2022/06/11 06:24:47;;;;;;;0.40;0.30;;;;;;;20.08;89.21;100881.28;4995642;28;20795;-50
2022/06/11 06:27:14;;;;;;;0.40;0.20;;;;;;;20.11;89.38;100875.69;5004928;28;20449;-49
2022/06/11 06:29:40;;;;;;;0.40;0.20;;;;;;;20.07;89.38;100881.38;4998226;28;20890;-49
2022/06/11 06:32:07;;;;;;;0.40;0.30;;;;;;;20.15;90.00;100870.09;5003837;28;21053;-49
2022/06/11 06:34:34;;;;;;;0.40;0.30;;;;;;;20.06;89.54;100885.88;4993990;28;20477;-49
2022/06/11 06:37:00;;;;;;;0.40;0.20;;;;;;;20.50;88.77;100882.41;5004513;28;20492;-49
2022/06/11 06:39:27;;;;;;;0.40;0.20;;;;;;;20.69;88.23;100888.41;4993771;28;20449;-48
2022/06/11 06:41:54;;;;;;;0.40;0.30;;;;;;;21.08;86.17;100897.75;5005825;28;20515;-48
2022/06/11 06:44:20;;;;;;;0.43;0.30;;;;;;;20.88;86.58;100899.00;4994420;28;20528;-48
2022/06/11 06:46:47;;;;;;;0.50;0.40;;;;;;;21.37;83.75;100895.94;5012620;28;20449;-48
2022/06/11 06:49:15;;;;;;;0.80;0.80;;;;;;;21.51;82.62;100901.31;4993090;28;20450;-48
2022/06/11 06:51:42;;;;;;;0.40;0.20;;;;;;;21.62;82.25;100907.91;5004883;28;21009;-51
2022/06/11 06:54:09;;;;;;;0.50;0.40;;;;;;;21.36;82.82;100918.53;4993709;28;20535;-48
2022/06/11 06:56:35;;;;;;;0.40;0.20;;;;;;;21.39;82.40;100910.25;5009415;28;20496;-48
2022/06/11 06:59:04;;;;;;;0.40;0.30;;;;;;;21.30;82.70;100916.25;4996975;28;20946;-48
2022/06/11 07:01:31;;;;;;;0.40;0.30;;;;;;;21.08;83.80;100911.25;5009159;28;20476;-49
2022/06/11 07:03:59;;;;;;;0.40;0.20;;;;;;;21.17;83.59;100913.41;4996536;28;20492;-48
2022/06/11 07:06:46;;;;;;;0.63;0.63;;;;;;;21.20;84.70;100915.91;5009211;28;20449;-49
2022/06/11 07:09:12;;;;;;;0.40;0.20;;;;;;;21.16;83.92;100911.66;4979286;28;20512;-48
2022/06/11 07:11:39;;;;;;;0.70;0.70;;;;;;;21.70;83.47;100909.16;5009577;28;20472;-48
2022/06/11 07:14:05;;;;;;;0.40;0.30;;;;;;;21.59;81.54;100908.97;4996151;28;20449;-48
2022/06/11 07:16:36;;;;;;;0.80;0.80;;;;;;;21.08;84.25;100903.16;5010638;28;20581;-48
2022/06/11 07:19:09;;;;;;;0.50;0.33;;;;;;;21.12;83.71;100906.56;4996188;28;20532;-49
2022/06/11 07:21:41;;;;;;;0.40;0.30;;;;;;;21.64;82.88;100903.25;5014164;28;20468;-48
2022/06/11 07:24:15;;;;;;;0.40;0.30;;;;;;;21.94;81.20;100908.53;5003889;28;20441;-49
2022/06/11 07:26:46;;;;;;;1.33;1.23;;;;;;;22.21;80.11;100905.84;5002721;28;20440;-49
2022/06/11 07:29:21;;;;;;;0.40;0.30;;;;;;;22.28;79.04;100908.03;5001300;28;20931;-48
2022/06/11 07:31:50;;;;;;;0.40;0.23;;;;;;;22.86;77.46;100903.19;5004666;28;20468;-48
2022/06/11 07:34:19;;;;;;;1.17;1.17;;;;;;;22.79;74.62;100913.56;4999761;28;20453;-49
2022/06/11 07:36:46;;;;;;;0.40;0.30;;;;;;;23.16;75.50;100901.00;5005227;28;20492;-48
2022/06/11 07:39:12;;;;;;;2.30;1.53;;;;;;;23.33;72.35;100907.97;4999389;28;20450;-49
2022/06/11 07:41:39;;;;;;;0.40;0.20;;;;;;;23.57;70.56;100899.88;5005691;28;20468;-49
2022/06/11 07:44:10;;;;;;;0.40;0.30;;;;;;;23.53;72.01;100901.09;4998595;28;20445;-48
2022/06/11 07:46:36;;;;;;;0.40;0.30;;;;;;;23.36;71.34;100905.03;5014214;28;20453;-49
2022/06/11 07:49:03;;;;;;;0.40;0.30;;;;;;;23.35;71.58;100906.88;4997710;28;21009;-49
2022/06/11 07:51:30;;;;;;;0.40;0.20;;;;;;;23.63;71.51;100894.91;5005993;28;20894;-48
2022/06/11 07:53:57;;;;;;;0.50;0.30;;;;;;;24.07;70.41;100900.72;4998315;28;20449;-49
2022/06/11 07:56:23;;;;;;;0.40;0.30;;;;;;;23.88;70.20;100898.53;5006046;28;20496;-49
2022/06/11 07:58:50;;;;;;;0.50;0.30;;;;;;;24.29;69.55;100891.84;4997856;28;20457;-49
2022/06/11 08:01:17;;;;;;;0.50;0.30;;;;;;;24.91;68.39;100886.97;5006370;28;20490;-49
2022/06/11 08:03:43;;;;;;;0.50;0.50;;;;;;;24.90;67.17;100892.53;4997471;28;20424;-49
2022/06/11 08:06:11;;;;;;;0.40;0.20;;;;;;;24.79;67.95;100890.66;5005635;28;20503;-48
2022/06/11 08:08:38;;;;;;;0.40;0.20;;;;;;;24.54;66.77;100890.84;4997283;28;20883;-50
2022/06/11 08:11:05;;;;;;;0.40;0.30;;;;;;;24.52;67.74;100889.09;5006019;28;20477;-51
2022/06/11 08:13:32;;;;;;;0.40;0.30;;;;;;;24.99;64.99;100884.53;4997064;28;20514;-49
2022/06/11 08:16:01;;;;;;;0.40;0.20;;;;;;;25.49;64.33;100882.31;5008623;28;20499;-49
2022/06/11 08:18:28;;;;;;;0.40;0.20;;;;;;;25.24;64.58;100880.75;4995548;28;20481;-49
2022/06/11 08:20:55;;;;;;;0.40;0.20;;;;;;;24.87;66.79;100881.91;5007226;28;20488;-48
2022/06/11 08:23:23;;;;;;;0.40;0.30;;;;;;;24.91;65.43;100886.97;5008084;28;20994;-49
2022/06/11 08:25:50;;;;;;;0.40;0.20;;;;;;;25.06;65.06;100883.06;4994977;28;20457;-49
2022/06/11 08:28:17;;;;;;;0.50;0.30;;;;;;;25.00;63.89;100883.56;5001828;28;20477;-49
2022/06/11 08:30:46;;;;;;;0.97;0.97;;;;;;;25.57;64.01;100890.75;5005691;28;20448;-49
2022/06/11 08:33:13;;;;;;;0.40;0.30;;;;;;;26.04;62.87;100891.44;5003673;28;20460;-51
2022/06/11 08:35:41;;;;;;;0.40;0.30;;;;;;;25.48;62.09;100880.59;5001003;28;20453;-49
2022/06/11 08:38:08;;;;;;;0.50;0.40;;;;;;;25.50;62.96;100888.66;5001366;28;20496;-49
2022/06/11 08:40:47;;;;;;;0.50;0.30;;;;;;;25.78;62.31;100884.56;5000328;28;20500;-49
2022/06/11 08:43:40;;;;;;;0.40;0.20;;;;;;;25.69;63.13;100884.31;5003761;28;20448;-49
2022/06/11 08:46:06;;;;;;;0.40;0.30;;;;;;;26.55;60.85;100880.72;5009288;28;20459;-49
2022/06/11 08:48:42;;;;;;;0.40;0.20;;;;;;;26.28;59.60;100881.16;5001764;28;20500;-50
2022/06/11 08:51:20;;;;;;;0.60;0.50;;;;;;;26.42;59.06;100874.56;5001535;28;20583;-49
2022/06/11 08:53:50;;;;;;;0.50;0.30;;;;;;;26.28;61.00;100869.41;4998331;28;20857;-48
2022/06/11 08:56:31;;;;;;;0.47;0.30;;;;;;;25.90;59.38;100868.03;5003953;28;20973;-49
2022/06/11 08:59:21;;;;;;;0.40;0.30;;;;;;;27.11;57.33;100864.00;4995667;28;20913;-49
2022/06/11 09:02:13;;;;;;;0.50;0.40;;;;;;;26.51;57.90;100867.47;5008383;28;20466;-49
2022/06/11 09:04:46;;;;;;;0.50;0.40;;;;;;;26.71;57.08;100860.28;4965223;28;20470;-50
2022/06/11 09:07:33;;;;;;;0.40;0.20;;;;;;;26.08;57.98;100860.22;5013972;28;20452;-49
2022/06/11 09:10:19;;;;;;;0.50;0.30;;;;;;;26.56;58.54;100857.03;5014116;28;20431;-49
2022/06/11 09:13:05;;;;;;;0.40;0.30;;;;;;;26.89;57.38;100858.69;5013997;28;20423;-52
2022/06/11 09:16:09;;;;;;;0.97;0.97;;;;;;;26.60;57.05;100854.91;5013773;28;20515;-49
2022/06/11 09:19:19;;;;;;;0.50;0.30;;;;;;;27.18;57.30;100845.22;4993400;28;20435;-49
2022/06/11 09:22:11;;;;;;;18.23;1.50;;;;;;;27.39;55.73;100842.41;5013267;28;20519;-49
2022/06/11 09:24:49;;;;;;;0.43;0.30;;;;;;;27.27;57.77;100841.66;4996697;28;20485;-49
2022/06/11 09:27:36;;;;;;;0.40;0.20;;;;;;;27.28;55.37;100846.13;5005730;28;20449;-49
2022/06/11 09:30:08;;;;;;;0.40;0.20;;;;;;;27.85;56.65;100846.47;5001685;28;20506;-49
2022/06/11 09:32:45;;;;;;;0.40;0.30;;;;;;;27.35;56.24;100840.97;4997373;28;20424;-49
2022/06/11 09:35:19;;;;;;;0.40;0.30;;;;;;;27.70;55.43;100843.28;5003991;28;20422;-49
2022/06/11 09:37:49;;;;;;;0.77;0.77;;;;;;;27.86;54.28;100842.72;4995013;28;20464;-50
2022/06/11 09:40:24;;;;;;;0.53;0.53;;;;;;;27.48;55.56;100847.06;5005487;28;20474;-49
2022/06/11 09:43:03;;;;;;;0.40;0.30;;;;;;;27.59;55.66;100843.34;5000007;28;21000;-49
2022/06/11 09:45:37;;;;;;;0.50;0.50;;;;;;;27.87;54.22;100839.84;5005957;28;20480;-50
2022/06/11 09:48:26;;;;;;;0.50;0.30;;;;;;;28.40;54.85;100849.53;4994423;28;20453;-50
2022/06/11 09:51:02;;;;;;;0.50;0.40;;;;;;;28.60;52.93;100840.28;5004520;28;20544;-49
2022/06/11 09:53:44;;;;;;;0.40;0.30;;;;;;;28.72;53.89;100838.25;5011757;28;20456;-51
2022/06/11 09:56:36;;;;;;;0.40;0.30;;;;;;;28.48;53.19;100830.50;4993262;28;20445;-50
2022/06/11 09:59:03;;;;;;;7.70;0.97;;;;;;;27.81;53.98;100836.81;5006155;28;20851;-49
2022/06/11 10:01:39;;;;;;;0.57;0.57;;;;;;;27.04;53.16;100824.63;4992958;28;20474;-51
2022/06/11 10:04:09;;;;;;;0.40;0.30;;;;;;;27.48;54.58;100827.94;5004461;28;20515;-49
2022/06/11 10:06:57;;;;;;;0.50;0.40;;;;;;;28.02;54.89;100832.94;4997929;28;20504;-50
2022/06/11 10:09:30;;;;;;;0.50;0.30;;;;;;;28.24;52.31;100833.69;4992963;28;20433;-50
2022/06/11 10:12:32;;;;;;;0.67;0.63;;;;;;;28.11;50.21;100833.13;4996013;28;21073;-49
2022/06/11 10:15:17;;;;;;;0.40;0.30;;;;;;;29.00;47.22;100829.13;4930161;29;20460;-49
2022/06/11 10:18:02;;;;;;;0.40;0.30;;;;;;;29.66;45.10;100830.88;4988757;28;20481;-49
2022/06/11 10:20:35;;;;;;;0.40;0.20;;;;;;;29.60;45.62;100825.97;5001406;28;20760;-51
2022/06/11 10:23:25;;;;;;;0.40;0.30;;;;;;;30.05;45.16;100826.00;4998929;28;20473;-50
2022/06/11 10:26:03;;;;;;;0.40;0.30;;;;;;;30.06;42.85;100825.84;4997843;28;20455;-51
2022/06/11 10:28:52;;;;;;;4.63;0.77;;;;;;;29.75;42.85;100821.72;5000294;28;20423;-50
2022/06/11 10:31:28;;;;;;;0.87;0.87;;;;;;;30.12;42.70;100824.34;4986938;28;20518;-49
2022/06/11 10:34:01;;;;;;;0.40;0.30;;;;;;;29.03;43.92;100825.22;5007890;28;20477;-51
2022/06/11 10:36:35;;;;;;;0.40;0.30;;;;;;;30.01;45.18;100821.78;5000252;28;20471;-50
2022/06/11 10:39:14;;;;;;;0.50;0.30;;;;;;;30.34;43.58;100820.28;4998384;28;20970;-50
2022/06/11 10:42:08;;;;;;;0.40;0.30;;;;;;;30.22;43.42;100816.91;4992420;28;20510;-50
2022/06/11 10:44:44;;;;;;;0.40;0.30;;;;;;;29.97;44.20;100825.88;4995540;28;20456;-50
2022/06/11 10:47:16;;;;;;;0.40;0.30;;;;;;;30.28;44.05;100816.25;5005090;28;20431;-49
2022/06/11 10:49:49;;;;;;;0.50;0.30;;;;;;;30.06;43.63;100814.88;4997665;28;20468;-50
2022/06/11 10:52:30;;;;;;;0.40;0.30;;;;;;;30.18;44.63;100821.00;5010620;28;20489;-50
2022/06/11 10:54:56;;;;;;;0.40;0.30;;;;;;;29.95;44.11;100816.94;4982196;28;20520;-52
2022/06/11 10:57:27;;;;;;;0.50;0.40;;;;;;;29.78;44.27;100813.19;4995339;28;20489;-50
2022/06/11 11:00:05;;;;;;;0.40;0.30;;;;;;;29.27;45.88;100814.59;5002656;28;20415;-50
2022/06/11 11:02:39;;;;;;;0.50;0.40;;;;;;;29.34;44.80;100807.53;4992524;28;20502;-50
2022/06/11 11:05:08;;;;;;;0.43;0.30;;;;;;;29.54;43.71;100813.78;4992220;28;20440;-50
2022/06/11 11:07:52;;;;;;;0.40;0.30;;;;;;;28.60;43.83;100799.25;4992232;28;20420;-50
2022/06/11 11:10:19;;;;;;;0.40;0.30;;;;;;;29.02;44.08;100807.94;4997695;28;20492;-50
2022/06/11 11:12:46;;;;;;;0.70;0.60;;;;;;;29.45;44.14;100810.03;4994894;28;20813;-50
2022/06/11 11:15:17;;;;;;;0.40;0.30;;;;;;;29.52;44.04;100804.84;5010717;28;20477;-51
2022/06/11 11:17:48;;;;;;;0.43;0.30;;;;;;;29.59;43.96;100800.47;5007573;28;20543;-50
2022/06/11 11:20:35;;;;;;;2.30;1.33;;;;;;;29.74;44.10;100798.03;4993063;28;20488;-50
2022/06/11 11:23:10;;;;;;;0.40;0.30;;;;;;;29.85;43.16;100807.94;4998920;28;20431;-50
2022/06/11 11:25:51;;;;;;;0.60;0.40;;;;;;;30.01;42.94;100797.97;5006244;28;20498;-50
2022/06/11 11:28:32;;;;;;;0.40;0.30;;;;;;;30.03;41.58;100801.44;4996347;28;20925;-50
2022/06/11 11:31:15;;;;;;;0.40;0.20;;;;;;;30.12;42.71;100796.91;4992480;28;20516;-50
2022/06/11 11:34:25;;;;;;;0.40;0.30;;;;;;;30.25;42.66;100804.75;4992378;28;20456;-51
2022/06/11 11:37:21;;;;;;;0.53;0.40;;;;;;;29.28;42.65;100805.38;4996917;28;20449;-50
2022/06/11 11:39:53;;;;;;;0.40;0.30;;;;;;;29.37;44.28;100798.13;5009837;28;20456;-50
2022/06/11 11:42:36;;;;;;;0.50;0.30;;;;;;;29.32;44.16;100790.34;5009336;28;20461;-50
2022/06/11 11:45:19;;;;;;;0.40;0.30;;;;;;;29.15;42.79;100785.69;5015020;28;20510;-50
2022/06/11 11:47:48;;;;;;;0.40;0.30;;;;;;;29.63;43.07;100785.44;5014767;28;20454;-51
2022/06/11 11:50:15;;;;;;;1.17;0.80;;;;;;;29.94;42.05;100779.59;5014499;28;20469;-50
2022/06/11 11:52:45;;;;;;;0.40;0.30;;;;;;;29.66;43.06;100781.53;5007912;28;20483;-50